ETHB

Buckeburg Airport

Germany
METAR ETHB 162320Z AUTO 28010KT 5000 // ////// 03/02 Q1014 ///
Observed Flight Rules
Dec-16 @ 23:20 UTC (60 minutes ago)
Wind Visibility
280° at 10 knots 5,005 meters
Temperatures Readings
Current 3°C / 37°F
Dewpoint 2°C / 36°F
Humidity 93%
Altimeter 29.94" Hg
Pressure 1014 hPa
Elevation 78
METAR ETHB 162320Z AUTO 28010KT 5000 // ////// 03/02 Q1014 ///
Observed Flight Rules
Dec-16 @ 23:20 UTC
(60 minutes ago)
Wind Visibility
280° at 10 knots 5,005 meters
Temperature Dewpoint
3°C / 37°F 2°C / 36°F
Humidity Altimeter Pressure
93% 29.94" Hg 1014 hPa